sensor_id;sensor_type;location;lat;lon;timestamp;P1;durP1;ratioP1;P2;durP2;ratioP2
38940;SDS011;43236;47.208;7.518;2023-11-19T00:01:26;9.85;;;6.53;;
38940;SDS011;43236;47.208;7.518;2023-11-19T00:04:15;9.48;;;6.57;;
38940;SDS011;43236;47.208;7.518;2023-11-19T00:07:02;11.43;;;7.10;;
38940;SDS011;43236;47.208;7.518;2023-11-19T00:09:51;9.73;;;7.18;;
38940;SDS011;43236;47.208;7.518;2023-11-19T00:12:40;6.75;;;6.05;;
38940;SDS011;43236;47.208;7.518;2023-11-19T00:15:29;8.90;;;7.13;;
38940;SDS011;43236;47.208;7.518;2023-11-19T00:18:16;8.70;;;6.70;;
38940;SDS011;43236;47.208;7.518;2023-11-19T00:21:05;9.13;;;8.25;;
38940;SDS011;43236;47.208;7.518;2023-11-19T00:23:53;7.72;;;6.25;;
38940;SDS011;43236;47.208;7.518;2023-11-19T00:26:43;9.15;;;6.05;;
38940;SDS011;43236;47.208;7.518;2023-11-19T00:29:30;7.72;;;6.15;;
38940;SDS011;43236;47.208;7.518;2023-11-19T00:32:17;7.57;;;6.80;;
38940;SDS011;43236;47.208;7.518;2023-11-19T00:35:05;8.18;;;6.63;;
38940;SDS011;43236;47.208;7.518;2023-11-19T00:37:54;8.65;;;5.93;;
38940;SDS011;43236;47.208;7.518;2023-11-19T00:40:41;11.60;;;5.80;;
38940;SDS011;43236;47.208;7.518;2023-11-19T00:43:29;6.78;;;5.85;;
38940;SDS011;43236;47.208;7.518;2023-11-19T00:46:16;6.88;;;5.88;;
38940;SDS011;43236;47.208;7.518;2023-11-19T00:49:03;7.97;;;6.25;;
38940;SDS011;43236;47.208;7.518;2023-11-19T00:51:50;9.63;;;8.55;;
38940;SDS011;43236;47.208;7.518;2023-11-19T00:54:39;6.75;;;5.97;;
38940;SDS011;43236;47.208;7.518;2023-11-19T00:57:26;6.53;;;5.57;;
38940;SDS011;43236;47.208;7.518;2023-11-19T01:00:13;8.40;;;5.90;;
38940;SDS011;43236;47.208;7.518;2023-11-19T01:03:03;8.15;;;5.78;;
38940;SDS011;43236;47.208;7.518;2023-11-19T01:05:52;7.18;;;5.80;;
38940;SDS011;43236;47.208;7.518;2023-11-19T01:08:39;8.55;;;6.35;;
38940;SDS011;43236;47.208;7.518;2023-11-19T01:11:28;7.80;;;6.60;;
38940;SDS011;43236;47.208;7.518;2023-11-19T01:14:15;6.28;;;5.55;;
38940;SDS011;43236;47.208;7.518;2023-11-19T01:17:03;8.20;;;6.20;;
38940;SDS011;43236;47.208;7.518;2023-11-19T01:19:51;11.48;;;7.20;;
38940;SDS011;43236;47.208;7.518;2023-11-19T01:22:38;10.95;;;6.00;;
38940;SDS011;43236;47.208;7.518;2023-11-19T01:25:25;8.00;;;5.35;;
38940;SDS011;43236;47.208;7.518;2023-11-19T01:28:13;10.23;;;5.25;;
38940;SDS011;43236;47.208;7.518;2023-11-19T01:31:00;8.18;;;6.50;;
38940;SDS011;43236;47.208;7.518;2023-11-19T01:33:48;6.35;;;5.55;;
38940;SDS011;43236;47.208;7.518;2023-11-19T01:36:35;6.97;;;5.47;;
38940;SDS011;43236;47.208;7.518;2023-11-19T01:39:22;6.07;;;4.85;;
38940;SDS011;43236;47.208;7.518;2023-11-19T01:42:09;5.55;;;5.05;;
38940;SDS011;43236;47.208;7.518;2023-11-19T01:44:59;6.45;;;5.53;;
38940;SDS011;43236;47.208;7.518;2023-11-19T01:47:46;6.25;;;4.93;;
38940;SDS011;43236;47.208;7.518;2023-11-19T01:50:33;9.40;;;6.55;;
38940;SDS011;43236;47.208;7.518;2023-11-19T01:53:21;7.47;;;5.75;;
38940;SDS011;43236;47.208;7.518;2023-11-19T01:56:09;9.20;;;6.47;;
38940;SDS011;43236;47.208;7.518;2023-11-19T01:58:58;8.23;;;6.07;;
38940;SDS011;43236;47.208;7.518;2023-11-19T02:01:47;5.65;;;4.65;;
38940;SDS011;43236;47.208;7.518;2023-11-19T02:04:34;8.15;;;6.15;;
38940;SDS011;43236;47.208;7.518;2023-11-19T02:07:21;6.35;;;4.22;;
38940;SDS011;43236;47.208;7.518;2023-11-19T02:10:08;8.13;;;5.75;;
38940;SDS011;43236;47.208;7.518;2023-11-19T02:13:00;7.72;;;5.53;;
38940;SDS011;43236;47.208;7.518;2023-11-19T02:15:47;6.40;;;5.65;;
38940;SDS011;43236;47.208;7.518;2023-11-19T02:18:36;7.47;;;6.05;;
38940;SDS011;43236;47.208;7.518;2023-11-19T02:21:23;6.88;;;5.38;;
38940;SDS011;43236;47.208;7.518;2023-11-19T02:24:10;9.98;;;5.88;;
38940;SDS011;43236;47.208;7.518;2023-11-19T02:27:02;5.65;;;5.07;;
38940;SDS011;43236;47.208;7.518;2023-11-19T02:29:54;6.40;;;5.05;;
38940;SDS011;43236;47.208;7.518;2023-11-19T02:32:41;8.07;;;4.47;;
38940;SDS011;43236;47.208;7.518;2023-11-19T02:35:28;5.72;;;4.80;;
38940;SDS011;43236;47.208;7.518;2023-11-19T02:38:17;5.97;;;4.55;;
38940;SDS011;43236;47.208;7.518;2023-11-19T02:41:04;6.07;;;4.95;;
38940;SDS011;43236;47.208;7.518;2023-11-19T02:43:52;6.50;;;5.22;;
38940;SDS011;43236;47.208;7.518;2023-11-19T02:46:41;4.93;;;4.25;;
38940;SDS011;43236;47.208;7.518;2023-11-19T02:49:28;6.13;;;3.78;;
38940;SDS011;43236;47.208;7.518;2023-11-19T02:52:15;6.03;;;5.13;;
38940;SDS011;43236;47.208;7.518;2023-11-19T02:55:02;7.20;;;5.13;;
38940;SDS011;43236;47.208;7.518;2023-11-19T02:57:54;7.22;;;5.10;;
38940;SDS011;43236;47.208;7.518;2023-11-19T03:00:41;6.80;;;5.45;;
38940;SDS011;43236;47.208;7.518;2023-11-19T03:03:38;6.70;;;4.80;;
38940;SDS011;43236;47.208;7.518;2023-11-19T03:06:25;5.60;;;4.00;;
38940;SDS011;43236;47.208;7.518;2023-11-19T03:09:14;5.53;;;5.03;;
38940;SDS011;43236;47.208;7.518;2023-11-19T03:12:01;6.22;;;4.68;;
38940;SDS011;43236;47.208;7.518;2023-11-19T03:14:49;5.75;;;4.55;;
38940;SDS011;43236;47.208;7.518;2023-11-19T03:17:38;5.32;;;4.55;;
38940;SDS011;43236;47.208;7.518;2023-11-19T03:20:26;6.30;;;4.93;;
38940;SDS011;43236;47.208;7.518;2023-11-19T03:23:15;6.70;;;4.43;;
38940;SDS011;43236;47.208;7.518;2023-11-19T03:26:02;6.25;;;4.10;;
38940;SDS011;43236;47.208;7.518;2023-11-19T03:28:51;7.20;;;4.97;;
38940;SDS011;43236;47.208;7.518;2023-11-19T03:31:41;6.47;;;4.72;;
38940;SDS011;43236;47.208;7.518;2023-11-19T03:34:28;7.30;;;5.22;;
38940;SDS011;43236;47.208;7.518;2023-11-19T03:37:16;7.00;;;4.72;;
38940;SDS011;43236;47.208;7.518;2023-11-19T03:40:05;5.88;;;4.75;;
38940;SDS011;43236;47.208;7.518;2023-11-19T03:42:53;7.13;;;4.47;;
38940;SDS011;43236;47.208;7.518;2023-11-19T03:45:42;7.53;;;5.15;;
38940;SDS011;43236;47.208;7.518;2023-11-19T03:48:29;5.40;;;4.53;;
38940;SDS011;43236;47.208;7.518;2023-11-19T03:51:16;7.35;;;4.05;;
38940;SDS011;43236;47.208;7.518;2023-11-19T03:54:04;5.80;;;4.28;;
38940;SDS011;43236;47.208;7.518;2023-11-19T03:56:53;5.05;;;4.38;;
38940;SDS011;43236;47.208;7.518;2023-11-19T03:59:40;6.65;;;4.32;;
38940;SDS011;43236;47.208;7.518;2023-11-19T04:02:27;5.05;;;3.58;;
38940;SDS011;43236;47.208;7.518;2023-11-19T04:05:14;6.65;;;4.03;;
38940;SDS011;43236;47.208;7.518;2023-11-19T04:08:01;7.38;;;4.75;;
38940;SDS011;43236;47.208;7.518;2023-11-19T04:10:49;5.88;;;3.80;;
38940;SDS011;43236;47.208;7.518;2023-11-19T04:13:36;6.65;;;4.07;;
38940;SDS011;43236;47.208;7.518;2023-11-19T04:16:26;6.05;;;3.97;;
38940;SDS011;43236;47.208;7.518;2023-11-19T04:19:14;4.68;;;3.88;;
38940;SDS011;43236;47.208;7.518;2023-11-19T04:22:01;4.70;;;3.42;;
38940;SDS011;43236;47.208;7.518;2023-11-19T04:24:48;4.78;;;2.83;;
38940;SDS011;43236;47.208;7.518;2023-11-19T04:27:36;10.90;;;5.78;;
38940;SDS011;43236;47.208;7.518;2023-11-19T04:30:23;5.05;;;3.33;;
38940;SDS011;43236;47.208;7.518;2023-11-19T04:33:11;5.07;;;4.28;;
38940;SDS011;43236;47.208;7.518;2023-11-19T04:35:58;4.30;;;3.90;;
38940;SDS011;43236;47.208;7.518;2023-11-19T04:38:45;5.43;;;3.97;;
38940;SDS011;43236;47.208;7.518;2023-11-19T04:41:32;5.70;;;3.97;;
38940;SDS011;43236;47.208;7.518;2023-11-19T04:44:21;5.90;;;3.35;;
38940;SDS011;43236;47.208;7.518;2023-11-19T04:47:08;5.50;;;3.55;;
38940;SDS011;43236;47.208;7.518;2023-11-19T04:49:56;4.68;;;3.30;;
38940;SDS011;43236;47.208;7.518;2023-11-19T04:52:43;4.18;;;3.22;;
38940;SDS011;43236;47.208;7.518;2023-11-19T04:55:30;5.05;;;4.18;;
38940;SDS011;43236;47.208;7.518;2023-11-19T04:58:17;5.50;;;4.45;;
38940;SDS011;43236;47.208;7.518;2023-11-19T05:01:06;4.03;;;2.72;;
38940;SDS011;43236;47.208;7.518;2023-11-19T05:03:59;4.60;;;3.28;;
38940;SDS011;43236;47.208;7.518;2023-11-19T05:06:47;4.97;;;3.92;;
38940;SDS011;43236;47.208;7.518;2023-11-19T05:09:34;4.95;;;3.25;;
38940;SDS011;43236;47.208;7.518;2023-11-19T05:12:21;5.57;;;2.72;;
38940;SDS011;43236;47.208;7.518;2023-11-19T05:15:08;6.45;;;3.47;;
38940;SDS011;43236;47.208;7.518;2023-11-19T05:17:58;6.35;;;3.75;;
38940;SDS011;43236;47.208;7.518;2023-11-19T05:20:45;5.20;;;3.53;;
38940;SDS011;43236;47.208;7.518;2023-11-19T05:23:32;4.07;;;3.20;;
38940;SDS011;43236;47.208;7.518;2023-11-19T05:26:20;7.60;;;3.75;;
38940;SDS011;43236;47.208;7.518;2023-11-19T05:29:08;3.42;;;3.03;;
38940;SDS011;43236;47.208;7.518;2023-11-19T05:31:55;4.72;;;3.30;;
38940;SDS011;43236;47.208;7.518;2023-11-19T05:34:43;3.80;;;2.90;;
38940;SDS011;43236;47.208;7.518;2023-11-19T05:37:30;4.80;;;3.35;;
38940;SDS011;43236;47.208;7.518;2023-11-19T05:40:17;4.03;;;2.83;;
38940;SDS011;43236;47.208;7.518;2023-11-19T05:43:06;3.30;;;3.00;;
38940;SDS011;43236;47.208;7.518;2023-11-19T05:45:53;3.95;;;3.25;;
38940;SDS011;43236;47.208;7.518;2023-11-19T05:48:40;3.97;;;3.10;;
38940;SDS011;43236;47.208;7.518;2023-11-19T05:51:28;3.63;;;2.40;;
38940;SDS011;43236;47.208;7.518;2023-11-19T05:54:15;3.13;;;2.42;;
38940;SDS011;43236;47.208;7.518;2023-11-19T05:57:02;3.45;;;2.85;;
38940;SDS011;43236;47.208;7.518;2023-11-19T05:59:50;4.13;;;2.90;;
38940;SDS011;43236;47.208;7.518;2023-11-19T06:02:37;3.80;;;2.80;;
38940;SDS011;43236;47.208;7.518;2023-11-19T06:05:24;4.65;;;3.38;;
38940;SDS011;43236;47.208;7.518;2023-11-19T06:08:12;5.40;;;3.15;;
38940;SDS011;43236;47.208;7.518;2023-11-19T06:10:59;4.05;;;3.35;;
38940;SDS011;43236;47.208;7.518;2023-11-19T06:13:47;3.33;;;2.78;;
38940;SDS011;43236;47.208;7.518;2023-11-19T06:16:35;3.60;;;2.55;;
38940;SDS011;43236;47.208;7.518;2023-11-19T06:19:25;3.13;;;2.35;;
38940;SDS011;43236;47.208;7.518;2023-11-19T06:22:12;3.08;;;2.78;;
38940;SDS011;43236;47.208;7.518;2023-11-19T06:25:00;3.35;;;3.05;;
38940;SDS011;43236;47.208;7.518;2023-11-19T06:27:52;3.25;;;2.45;;
38940;SDS011;43236;47.208;7.518;2023-11-19T06:30:39;3.40;;;2.35;;
38940;SDS011;43236;47.208;7.518;2023-11-19T06:33:26;2.53;;;2.05;;
38940;SDS011;43236;47.208;7.518;2023-11-19T06:36:14;2.72;;;2.40;;
38940;SDS011;43236;47.208;7.518;2023-11-19T06:39:02;3.67;;;3.08;;
38940;SDS011;43236;47.208;7.518;2023-11-19T06:41:50;3.28;;;2.92;;
38940;SDS011;43236;47.208;7.518;2023-11-19T06:44:38;3.42;;;3.00;;
38940;SDS011;43236;47.208;7.518;2023-11-19T06:47:25;3.72;;;2.80;;
38940;SDS011;43236;47.208;7.518;2023-11-19T06:50:13;3.97;;;3.17;;
38940;SDS011;43236;47.208;7.518;2023-11-19T06:53:00;4.55;;;2.65;;
38940;SDS011;43236;47.208;7.518;2023-11-19T06:55:47;3.55;;;2.80;;
38940;SDS011;43236;47.208;7.518;2023-11-19T06:58:36;6.38;;;3.70;;
38940;SDS011;43236;47.208;7.518;2023-11-19T07:01:25;3.55;;;2.75;;
38940;SDS011;43236;47.208;7.518;2023-11-19T07:04:12;4.15;;;3.40;;
38940;SDS011;43236;47.208;7.518;2023-11-19T07:06:59;4.93;;;2.80;;
38940;SDS011;43236;47.208;7.518;2023-11-19T07:09:46;8.32;;;3.58;;
38940;SDS011;43236;47.208;7.518;2023-11-19T07:12:33;5.85;;;3.50;;
38940;SDS011;43236;47.208;7.518;2023-11-19T07:15:22;4.70;;;3.22;;
38940;SDS011;43236;47.208;7.518;2023-11-19T07:18:09;3.65;;;2.80;;
38940;SDS011;43236;47.208;7.518;2023-11-19T07:20:57;3.63;;;2.55;;
38940;SDS011;43236;47.208;7.518;2023-11-19T07:23:45;4.15;;;2.58;;
38940;SDS011;43236;47.208;7.518;2023-11-19T07:26:32;3.42;;;3.10;;
38940;SDS011;43236;47.208;7.518;2023-11-19T07:29:19;3.95;;;2.60;;
38940;SDS011;43236;47.208;7.518;2023-11-19T07:32:08;5.82;;;3.78;;
38940;SDS011;43236;47.208;7.518;2023-11-19T07:34:55;3.97;;;2.83;;
38940;SDS011;43236;47.208;7.518;2023-11-19T07:37:42;3.97;;;3.42;;
38940;SDS011;43236;47.208;7.518;2023-11-19T07:40:31;3.65;;;2.80;;
38940;SDS011;43236;47.208;7.518;2023-11-19T07:43:18;5.70;;;3.67;;
38940;SDS011;43236;47.208;7.518;2023-11-19T07:46:05;3.92;;;3.45;;
38940;SDS011;43236;47.208;7.518;2023-11-19T07:48:58;4.28;;;3.00;;
38940;SDS011;43236;47.208;7.518;2023-11-19T07:51:45;5.65;;;3.47;;
38940;SDS011;43236;47.208;7.518;2023-11-19T07:54:32;5.03;;;3.30;;
38940;SDS011;43236;47.208;7.518;2023-11-19T07:57:19;4.65;;;3.17;;
38940;SDS011;43236;47.208;7.518;2023-11-19T08:00:06;4.43;;;2.65;;
38940;SDS011;43236;47.208;7.518;2023-11-19T08:02:57;4.18;;;3.63;;
38940;SDS011;43236;47.208;7.518;2023-11-19T08:05:45;6.60;;;3.65;;
38940;SDS011;43236;47.208;7.518;2023-11-19T08:08:32;6.53;;;3.42;;
38940;SDS011;43236;47.208;7.518;2023-11-19T08:11:20;4.85;;;3.67;;
38940;SDS011;43236;47.208;7.518;2023-11-19T08:14:07;5.05;;;3.75;;
38940;SDS011;43236;47.208;7.518;2023-11-19T08:16:54;5.18;;;3.70;;
38940;SDS011;43236;47.208;7.518;2023-11-19T08:19:41;5.93;;;4.05;;
38940;SDS011;43236;47.208;7.518;2023-11-19T08:22:29;6.65;;;4.05;;
38940;SDS011;43236;47.208;7.518;2023-11-19T08:25:16;6.30;;;4.22;;
38940;SDS011;43236;47.208;7.518;2023-11-19T08:28:03;3.85;;;2.90;;
38940;SDS011;43236;47.208;7.518;2023-11-19T08:30:50;3.42;;;3.13;;
38940;SDS011;43236;47.208;7.518;2023-11-19T08:33:37;7.00;;;3.92;;
38940;SDS011;43236;47.208;7.518;2023-11-19T08:36:24;5.22;;;3.28;;
38940;SDS011;43236;47.208;7.518;2023-11-19T08:39:14;4.35;;;3.08;;
38940;SDS011;43236;47.208;7.518;2023-11-19T08:42:02;5.07;;;3.67;;
38940;SDS011;43236;47.208;7.518;2023-11-19T08:44:49;4.47;;;2.85;;
38940;SDS011;43236;47.208;7.518;2023-11-19T08:47:39;6.60;;;3.92;;
38940;SDS011;43236;47.208;7.518;2023-11-19T08:50:26;6.32;;;3.75;;
38940;SDS011;43236;47.208;7.518;2023-11-19T08:53:13;8.93;;;3.65;;
38940;SDS011;43236;47.208;7.518;2023-11-19T08:56:02;4.03;;;3.65;;
38940;SDS011;43236;47.208;7.518;2023-11-19T08:58:49;6.15;;;3.00;;
38940;SDS011;43236;47.208;7.518;2023-11-19T09:01:36;7.85;;;4.05;;
38940;SDS011;43236;47.208;7.518;2023-11-19T09:04:23;4.30;;;3.88;;
38940;SDS011;43236;47.208;7.518;2023-11-19T09:07:10;6.32;;;3.25;;
38940;SDS011;43236;47.208;7.518;2023-11-19T09:09:57;5.18;;;3.28;;
38940;SDS011;43236;47.208;7.518;2023-11-19T09:12:46;4.57;;;3.40;;
38940;SDS011;43236;47.208;7.518;2023-11-19T09:15:33;6.38;;;3.47;;
38940;SDS011;43236;47.208;7.518;2023-11-19T09:18:20;5.03;;;3.42;;
38940;SDS011;43236;47.208;7.518;2023-11-19T09:21:07;4.32;;;3.30;;
38940;SDS011;43236;47.208;7.518;2023-11-19T09:23:56;4.65;;;3.70;;
38940;SDS011;43236;47.208;7.518;2023-11-19T09:26:43;4.35;;;3.42;;
38940;SDS011;43236;47.208;7.518;2023-11-19T09:29:32;3.78;;;2.97;;
38940;SDS011;43236;47.208;7.518;2023-11-19T09:32:19;4.60;;;3.47;;
38940;SDS011;43236;47.208;7.518;2023-11-19T09:35:06;5.72;;;3.20;;
38940;SDS011;43236;47.208;7.518;2023-11-19T09:37:54;4.90;;;4.32;;
38940;SDS011;43236;47.208;7.518;2023-11-19T09:40:41;5.30;;;3.72;;
38940;SDS011;43236;47.208;7.518;2023-11-19T09:43:28;9.43;;;3.85;;
38940;SDS011;43236;47.208;7.518;2023-11-19T09:46:17;5.50;;;3.22;;
38940;SDS011;43236;47.208;7.518;2023-11-19T09:49:05;4.20;;;3.38;;
38940;SDS011;43236;47.208;7.518;2023-11-19T09:51:54;2.88;;;2.58;;
38940;SDS011;43236;47.208;7.518;2023-11-19T09:54:41;5.72;;;3.35;;
38940;SDS011;43236;47.208;7.518;2023-11-19T09:57:28;5.50;;;3.30;;
38940;SDS011;43236;47.208;7.518;2023-11-19T10:00:18;5.20;;;3.30;;
38940;SDS011;43236;47.208;7.518;2023-11-19T10:03:08;4.55;;;3.22;;
38940;SDS011;43236;47.208;7.518;2023-11-19T10:05:58;3.80;;;3.20;;
38940;SDS011;43236;47.208;7.518;2023-11-19T10:08:48;5.03;;;3.03;;
38940;SDS011;43236;47.208;7.518;2023-11-19T10:11:35;5.70;;;3.67;;
38940;SDS011;43236;47.208;7.518;2023-11-19T10:14:23;4.35;;;3.13;;
38940;SDS011;43236;47.208;7.518;2023-11-19T10:17:10;3.70;;;2.72;;
38940;SDS011;43236;47.208;7.518;2023-11-19T10:19:58;3.85;;;3.10;;
38940;SDS011;43236;47.208;7.518;2023-11-19T10:22:45;4.60;;;3.42;;
38940;SDS011;43236;47.208;7.518;2023-11-19T10:25:32;6.13;;;3.00;;
38940;SDS011;43236;47.208;7.518;2023-11-19T10:28:20;3.90;;;2.70;;
38940;SDS011;43236;47.208;7.518;2023-11-19T10:31:07;5.85;;;3.75;;
38940;SDS011;43236;47.208;7.518;2023-11-19T10:33:54;7.90;;;3.85;;
38940;SDS011;43236;47.208;7.518;2023-11-19T10:36:43;3.63;;;3.03;;
38940;SDS011;43236;47.208;7.518;2023-11-19T10:39:33;5.78;;;3.88;;
38940;SDS011;43236;47.208;7.518;2023-11-19T10:42:40;3.88;;;2.80;;
38940;SDS011;43236;47.208;7.518;2023-11-19T10:45:28;4.38;;;3.85;;
38940;SDS011;43236;47.208;7.518;2023-11-19T10:48:15;5.00;;;4.10;;
38940;SDS011;43236;47.208;7.518;2023-11-19T10:51:02;6.40;;;3.60;;
38940;SDS011;43236;47.208;7.518;2023-11-19T10:53:54;3.50;;;3.00;;
38940;SDS011;43236;47.208;7.518;2023-11-19T10:56:46;6.20;;;3.60;;
38940;SDS011;43236;47.208;7.518;2023-11-19T10:59:40;6.00;;;3.58;;
38940;SDS011;43236;47.208;7.518;2023-11-19T11:02:29;3.80;;;3.45;;
38940;SDS011;43236;47.208;7.518;2023-11-19T11:05:22;6.38;;;4.38;;
38940;SDS011;43236;47.208;7.518;2023-11-19T11:08:10;5.32;;;4.07;;
38940;SDS011;43236;47.208;7.518;2023-11-19T11:10:59;6.05;;;3.95;;
38940;SDS011;43236;47.208;7.518;2023-11-19T11:13:47;3.63;;;3.10;;
38940;SDS011;43236;47.208;7.518;2023-11-19T11:16:34;5.20;;;4.32;;
38940;SDS011;43236;47.208;7.518;2023-11-19T11:19:24;3.78;;;3.47;;
38940;SDS011;43236;47.208;7.518;2023-11-19T11:22:11;5.85;;;3.72;;
38940;SDS011;43236;47.208;7.518;2023-11-19T11:25:04;4.38;;;3.67;;
38940;SDS011;43236;47.208;7.518;2023-11-19T11:28:10;4.35;;;3.50;;
38940;SDS011;43236;47.208;7.518;2023-11-19T11:31:15;4.32;;;3.20;;
38940;SDS011;43236;47.208;7.518;2023-11-19T11:34:27;3.63;;;2.92;;
38940;SDS011;43236;47.208;7.518;2023-11-19T11:37:29;3.25;;;2.45;;
38940;SDS011;43236;47.208;7.518;2023-11-19T11:40:19;3.88;;;2.60;;
38940;SDS011;43236;47.208;7.518;2023-11-19T11:49:42;3.50;;;2.45;;
38940;SDS011;43236;47.208;7.518;2023-11-19T11:52:29;4.43;;;2.28;;
38940;SDS011;43236;47.208;7.518;2023-11-19T11:55:16;2.95;;;2.35;;
38940;SDS011;43236;47.208;7.518;2023-11-19T11:58:04;2.08;;;1.77;;
38940;SDS011;43236;47.208;7.518;2023-11-19T12:00:52;2.72;;;1.95;;
38940;SDS011;43236;47.208;7.518;2023-11-19T12:03:40;2.63;;;1.73;;
38940;SDS011;43236;47.208;7.518;2023-11-19T12:06:27;1.75;;;1.55;;
38940;SDS011;43236;47.208;7.518;2023-11-19T12:09:14;2.22;;;1.80;;
38940;SDS011;43236;47.208;7.518;2023-11-19T12:12:07;2.90;;;1.58;;
38940;SDS011;43236;47.208;7.518;2023-11-19T12:15:08;3.22;;;1.90;;
38940;SDS011;43236;47.208;7.518;2023-11-19T12:17:56;2.72;;;1.70;;
38940;SDS011;43236;47.208;7.518;2023-11-19T12:20:44;3.92;;;2.10;;
38940;SDS011;43236;47.208;7.518;2023-11-19T12:23:32;2.97;;;2.20;;
38940;SDS011;43236;47.208;7.518;2023-11-19T12:26:35;1.98;;;1.58;;
38940;SDS011;43236;47.208;7.518;2023-11-19T12:29:25;2.10;;;1.38;;
38940;SDS011;43236;47.208;7.518;2023-11-19T12:32:12;4.45;;;3.35;;
38940;SDS011;43236;47.208;7.518;2023-11-19T12:34:59;2.55;;;2.03;;
38940;SDS011;43236;47.208;7.518;2023-11-19T12:37:48;3.03;;;2.13;;
38940;SDS011;43236;47.208;7.518;2023-11-19T12:40:36;1.48;;;1.30;;
38940;SDS011;43236;47.208;7.518;2023-11-19T12:43:23;3.67;;;2.20;;
38940;SDS011;43236;47.208;7.518;2023-11-19T12:46:19;3.50;;;2.20;;
38940;SDS011;43236;47.208;7.518;2023-11-19T12:49:07;2.92;;;2.33;;
38940;SDS011;43236;47.208;7.518;2023-11-19T12:51:54;2.90;;;2.38;;
38940;SDS011;43236;47.208;7.518;2023-11-19T12:54:42;2.05;;;1.65;;
38940;SDS011;43236;47.208;7.518;2023-11-19T12:57:36;2.05;;;1.48;;
38940;SDS011;43236;47.208;7.518;2023-11-19T13:00:24;3.17;;;1.90;;
38940;SDS011;43236;47.208;7.518;2023-11-19T13:03:12;3.83;;;1.60;;
38940;SDS011;43236;47.208;7.518;2023-11-19T13:06:15;2.35;;;1.40;;
38940;SDS011;43236;47.208;7.518;2023-11-19T13:09:02;2.70;;;1.77;;
38940;SDS011;43236;47.208;7.518;2023-11-19T13:11:50;2.13;;;1.55;;
38940;SDS011;43236;47.208;7.518;2023-11-19T13:14:38;2.90;;;1.90;;
38940;SDS011;43236;47.208;7.518;2023-11-19T13:17:27;2.50;;;1.83;;
38940;SDS011;43236;47.208;7.518;2023-11-19T13:20:14;3.72;;;1.67;;
38940;SDS011;43236;47.208;7.518;2023-11-19T13:23:02;2.17;;;1.83;;
38940;SDS011;43236;47.208;7.518;2023-11-19T13:25:50;4.65;;;2.42;;
38940;SDS011;43236;47.208;7.518;2023-11-19T13:28:38;2.60;;;1.80;;
38940;SDS011;43236;47.208;7.518;2023-11-19T13:31:25;2.85;;;2.15;;
38940;SDS011;43236;47.208;7.518;2023-11-19T13:34:13;5.78;;;2.65;;
38940;SDS011;43236;47.208;7.518;2023-11-19T13:37:00;3.97;;;2.28;;
38940;SDS011;43236;47.208;7.518;2023-11-19T13:39:47;1.85;;;1.58;;
38940;SDS011;43236;47.208;7.518;2023-11-19T13:42:35;1.92;;;1.73;;
38940;SDS011;43236;47.208;7.518;2023-11-19T13:45:27;2.53;;;2.17;;
38940;SDS011;43236;47.208;7.518;2023-11-19T13:48:14;3.30;;;2.15;;
38940;SDS011;43236;47.208;7.518;2023-11-19T13:51:01;2.63;;;1.60;;
38940;SDS011;43236;47.208;7.518;2023-11-19T13:53:48;3.00;;;1.83;;
38940;SDS011;43236;47.208;7.518;2023-11-19T13:56:35;9.95;;;4.25;;
38940;SDS011;43236;47.208;7.518;2023-11-19T13:59:22;3.63;;;2.47;;
38940;SDS011;43236;47.208;7.518;2023-11-19T14:02:11;2.47;;;2.10;;
38940;SDS011;43236;47.208;7.518;2023-11-19T14:04:58;3.15;;;1.60;;
38940;SDS011;43236;47.208;7.518;2023-11-19T14:07:45;2.97;;;2.28;;
38940;SDS011;43236;47.208;7.518;2023-11-19T14:10:33;5.00;;;2.75;;
38940;SDS011;43236;47.208;7.518;2023-11-19T14:13:21;2.78;;;2.33;;
38940;SDS011;43236;47.208;7.518;2023-11-19T14:16:09;2.78;;;2.05;;
38940;SDS011;43236;47.208;7.518;2023-11-19T14:18:59;3.80;;;2.50;;
38940;SDS011;43236;47.208;7.518;2023-11-19T14:21:46;2.33;;;1.75;;
38940;SDS011;43236;47.208;7.518;2023-11-19T14:24:33;2.88;;;2.38;;
38940;SDS011;43236;47.208;7.518;2023-11-19T14:27:20;2.95;;;2.30;;
38940;SDS011;43236;47.208;7.518;2023-11-19T14:30:08;3.83;;;2.42;;
38940;SDS011;43236;47.208;7.518;2023-11-19T14:32:57;3.92;;;2.90;;
38940;SDS011;43236;47.208;7.518;2023-11-19T14:35:45;2.22;;;1.90;;
38940;SDS011;43236;47.208;7.518;2023-11-19T14:38:34;3.85;;;2.45;;
38940;SDS011;43236;47.208;7.518;2023-11-19T14:41:21;2.83;;;2.10;;
38940;SDS011;43236;47.208;7.518;2023-11-19T14:44:08;4.78;;;3.05;;
38940;SDS011;43236;47.208;7.518;2023-11-19T14:46:56;3.20;;;2.47;;
38940;SDS011;43236;47.208;7.518;2023-11-19T14:49:43;3.17;;;1.83;;
38940;SDS011;43236;47.208;7.518;2023-11-19T14:52:31;3.30;;;2.30;;
38940;SDS011;43236;47.208;7.518;2023-11-19T14:55:18;4.22;;;2.30;;
38940;SDS011;43236;47.208;7.518;2023-11-19T14:58:05;2.58;;;2.00;;
38940;SDS011;43236;47.208;7.518;2023-11-19T15:00:52;2.05;;;1.85;;
38940;SDS011;43236;47.208;7.518;2023-11-19T15:03:39;3.35;;;2.47;;
38940;SDS011;43236;47.208;7.518;2023-11-19T15:06:26;3.67;;;2.33;;
38940;SDS011;43236;47.208;7.518;2023-11-19T15:09:17;3.08;;;2.72;;
38940;SDS011;43236;47.208;7.518;2023-11-19T15:12:06;3.92;;;2.00;;
38940;SDS011;43236;47.208;7.518;2023-11-19T15:14:54;2.42;;;2.00;;
38940;SDS011;43236;47.208;7.518;2023-11-19T15:17:41;5.25;;;2.30;;
38940;SDS011;43236;47.208;7.518;2023-11-19T15:20:28;2.83;;;2.03;;
38940;SDS011;43236;47.208;7.518;2023-11-19T15:23:15;4.90;;;3.90;;
38940;SDS011;43236;47.208;7.518;2023-11-19T15:26:04;2.78;;;2.58;;
38940;SDS011;43236;47.208;7.518;2023-11-19T15:28:52;4.25;;;2.40;;
38940;SDS011;43236;47.208;7.518;2023-11-19T15:31:41;3.67;;;2.10;;
38940;SDS011;43236;47.208;7.518;2023-11-19T15:34:28;3.15;;;2.20;;
38940;SDS011;43236;47.208;7.518;2023-11-19T15:37:15;2.42;;;2.13;;
38940;SDS011;43236;47.208;7.518;2023-11-19T15:40:02;2.28;;;2.03;;
38940;SDS011;43236;47.208;7.518;2023-11-19T15:42:54;2.65;;;2.17;;
38940;SDS011;43236;47.208;7.518;2023-11-19T15:45:43;2.53;;;2.03;;
38940;SDS011;43236;47.208;7.518;2023-11-19T15:48:30;8.38;;;3.40;;
38940;SDS011;43236;47.208;7.518;2023-11-19T15:51:17;4.40;;;3.05;;
38940;SDS011;43236;47.208;7.518;2023-11-19T15:54:04;4.55;;;2.67;;
38940;SDS011;43236;47.208;7.518;2023-11-19T15:56:51;3.90;;;3.08;;
38940;SDS011;43236;47.208;7.518;2023-11-19T15:59:40;4.38;;;2.65;;
38940;SDS011;43236;47.208;7.518;2023-11-19T16:02:27;3.42;;;2.90;;
38940;SDS011;43236;47.208;7.518;2023-11-19T16:05:14;4.97;;;2.78;;
38940;SDS011;43236;47.208;7.518;2023-11-19T16:08:01;3.35;;;2.50;;
38940;SDS011;43236;47.208;7.518;2023-11-19T16:10:48;3.88;;;2.95;;
38940;SDS011;43236;47.208;7.518;2023-11-19T16:13:35;2.53;;;2.10;;
38940;SDS011;43236;47.208;7.518;2023-11-19T16:16:24;4.45;;;2.47;;
38940;SDS011;43236;47.208;7.518;2023-11-19T16:19:11;3.55;;;2.85;;
38940;SDS011;43236;47.208;7.518;2023-11-19T16:21:58;4.82;;;3.42;;
38940;SDS011;43236;47.208;7.518;2023-11-19T16:24:55;6.55;;;3.78;;
38940;SDS011;43236;47.208;7.518;2023-11-19T16:27:42;3.97;;;3.10;;
38940;SDS011;43236;47.208;7.518;2023-11-19T16:30:29;3.65;;;2.78;;
38940;SDS011;43236;47.208;7.518;2023-11-19T16:33:17;4.20;;;2.95;;
38940;SDS011;43236;47.208;7.518;2023-11-19T16:36:05;2.78;;;2.47;;
38940;SDS011;43236;47.208;7.518;2023-11-19T16:38:52;3.92;;;2.95;;
38940;SDS011;43236;47.208;7.518;2023-11-19T16:41:39;5.30;;;2.53;;
38940;SDS011;43236;47.208;7.518;2023-11-19T16:44:26;3.47;;;2.63;;
38940;SDS011;43236;47.208;7.518;2023-11-19T16:47:14;3.90;;;2.90;;
38940;SDS011;43236;47.208;7.518;2023-11-19T16:50:03;4.47;;;3.20;;
38940;SDS011;43236;47.208;7.518;2023-11-19T16:52:50;5.60;;;2.67;;
38940;SDS011;43236;47.208;7.518;2023-11-19T16:55:37;3.38;;;2.70;;
38940;SDS011;43236;47.208;7.518;2023-11-19T16:58:26;4.65;;;2.92;;
38940;SDS011;43236;47.208;7.518;2023-11-19T17:01:13;5.63;;;3.03;;